Athol Springs, New York
Current Conditions -  °F | °C
As of 2:54 AM on Friday 31 Oct 2014 (Local Time) from KBUF Reporting Station
Overcast Overcast  
Wind Chill: 40°   Ceiling: 4000
Heat Index: 43°   Visibility: 10mi
Dew Point: 36°   Wind: 5mph
Humidity: 76%   Direction: 140°SE
Pressure: 29.99"   Gusts: NA
Location:  42.77°N, 78.87°W
Report Text: KBUF 310654Z 14004KT 10SM BKN040 OVC095 06/02 A2999 RMK AO2 SLP158 T00610022
Loading
Personal Weather Stations






























Interactive Weather Map
Tropical Storm Tracking
New forecast layout! Learn more

10-Day Weather Forecast

Advertisements
Track Severe Weather on mobile